createdAt,value
2022-11-19T00:00:23.345Z,12
2022-11-19T00:01:23.339Z,11
2022-11-19T00:02:23.416Z,9
2022-11-19T00:03:23.338Z,11
2022-11-19T00:04:23.380Z,34
2022-11-19T00:05:23.374Z,8
2022-11-19T00:06:23.333Z,19
2022-11-19T00:07:23.402Z,15
2022-11-19T00:08:23.351Z,28
2022-11-19T00:09:23.341Z,16
2022-11-19T00:10:23.396Z,18
2022-11-19T00:11:23.370Z,13
2022-11-19T00:12:23.386Z,19
2022-11-19T00:13:23.392Z,13
2022-11-19T00:14:23.347Z,11
2022-11-19T00:15:23.357Z,13
2022-11-19T00:16:23.343Z,11
2022-11-19T00:17:23.326Z,20
2022-11-19T00:18:23.332Z,43
2022-11-19T00:19:23.346Z,11
2022-11-19T00:20:23.484Z,15
2022-11-19T00:21:23.390Z,9
2022-11-19T00:22:23.396Z,22
2022-11-19T00:23:23.335Z,17
2022-11-19T00:24:23.363Z,32
2022-11-19T00:25:23.335Z,14
2022-11-19T00:26:23.337Z,25
2022-11-19T00:27:23.354Z,18
2022-11-19T00:28:23.375Z,17
2022-11-19T00:29:23.827Z,26
2022-11-19T00:30:46.465Z,29
2022-11-19T00:31:23.339Z,11
2022-11-19T00:32:23.338Z,10
2022-11-19T00:33:23.429Z,8
2022-11-19T00:34:23.477Z,13
2022-11-19T00:35:23.596Z,8
2022-11-19T00:36:23.524Z,6
2022-11-19T00:37:23.421Z,7
2022-11-19T00:38:23.532Z,7
2022-11-19T00:39:23.378Z,8
2022-11-19T00:40:23.658Z,7
2022-11-19T00:41:23.340Z,7
2022-11-19T00:42:23.343Z,8
2022-11-19T00:43:23.378Z,6
2022-11-19T00:44:23.406Z,8
2022-11-19T00:45:23.339Z,7
2022-11-19T00:46:23.341Z,6
2022-11-19T00:47:23.347Z,6
2022-11-19T00:48:23.359Z,6
2022-11-19T00:49:23.352Z,7
2022-11-19T00:50:23.353Z,7
2022-11-19T00:51:23.431Z,6
2022-11-19T00:52:23.485Z,6
2022-11-19T00:53:23.348Z,7
2022-11-19T00:54:23.402Z,7
2022-11-19T00:55:23.468Z,6
2022-11-19T00:56:23.347Z,6
2022-11-19T00:57:23.376Z,6
2022-11-19T00:58:23.343Z,7
2022-11-19T00:59:23.391Z,7
2022-11-19T01:00:23.387Z,8
2022-11-19T01:01:23.487Z,7
2022-11-19T01:02:23.334Z,7
2022-11-19T01:03:23.334Z,7
2022-11-19T01:04:23.336Z,7
2022-11-19T01:05:23.392Z,6
2022-11-19T01:06:23.368Z,6
2022-11-19T01:07:23.426Z,6
2022-11-19T01:08:23.488Z,5
2022-11-19T01:09:23.384Z,6
2022-11-19T01:10:23.351Z,6
2022-11-19T01:11:23.345Z,5
2022-11-19T01:12:23.404Z,6
2022-11-19T01:13:23.378Z,7
2022-11-19T01:14:23.344Z,5
2022-11-19T01:15:23.390Z,6
2022-11-19T01:16:23.371Z,6
2022-11-19T01:17:23.351Z,6
2022-11-19T01:18:23.350Z,5
2022-11-19T01:19:23.356Z,6
2022-11-19T01:20:23.378Z,5
2022-11-19T01:21:23.359Z,5
2022-11-19T01:22:23.332Z,7
2022-11-19T01:23:23.397Z,5
2022-11-19T01:24:23.341Z,5
2022-11-19T01:25:23.347Z,5
2022-11-19T01:26:23.360Z,5
2022-11-19T01:27:23.346Z,4
2022-11-19T01:28:23.358Z,4
2022-11-19T01:29:23.345Z,5
2022-11-19T01:30:23.353Z,5
2022-11-19T01:31:23.385Z,5
2022-11-19T01:32:23.348Z,4
2022-11-19T01:33:23.334Z,6
2022-11-19T01:34:23.344Z,4
2022-11-19T01:35:23.329Z,5
2022-11-19T01:36:23.371Z,4
2022-11-19T01:37:23.347Z,4
2022-11-19T01:38:23.479Z,4
2022-11-19T01:39:23.383Z,4
2022-11-19T01:40:23.460Z,4
2022-11-19T01:41:23.405Z,3
2022-11-19T01:42:23.376Z,3
2022-11-19T01:43:23.371Z,4
2022-11-19T01:44:23.478Z,3
2022-11-19T01:45:23.543Z,4
2022-11-19T01:46:23.417Z,5
2022-11-19T01:47:23.424Z,3
2022-11-19T01:48:23.352Z,4
2022-11-19T01:49:23.405Z,4
2022-11-19T01:50:23.353Z,3
2022-11-19T01:51:23.360Z,4
2022-11-19T01:52:23.353Z,4
2022-11-19T01:53:23.346Z,3
2022-11-19T01:54:23.381Z,4
2022-11-19T01:55:23.386Z,4
2022-11-19T01:56:23.375Z,4
2022-11-19T01:57:23.373Z,4
2022-11-19T01:58:23.336Z,3
2022-11-19T01:59:23.457Z,4
2022-11-19T02:00:23.328Z,5
2022-11-19T02:01:23.470Z,4
2022-11-19T02:02:23.416Z,4
2022-11-19T02:03:23.386Z,4
2022-11-19T02:04:23.347Z,4
2022-11-19T02:05:23.346Z,3
2022-11-19T02:06:23.378Z,4
2022-11-19T02:07:23.420Z,4
2022-11-19T02:08:23.358Z,4
2022-11-19T02:09:23.341Z,4
2022-11-19T02:10:23.467Z,5
2022-11-19T02:11:23.340Z,5
2022-11-19T02:12:23.336Z,4
2022-11-19T02:13:23.331Z,5
2022-11-19T02:14:23.494Z,5
2022-11-19T02:15:23.327Z,4
2022-11-19T02:16:23.337Z,5
2022-11-19T02:17:23.337Z,4
2022-11-19T02:18:23.422Z,4
2022-11-19T02:19:23.336Z,5
2022-11-19T02:20:23.348Z,5
2022-11-19T02:21:23.368Z,4
2022-11-19T02:22:23.345Z,4
2022-11-19T02:23:23.352Z,5
2022-11-19T02:24:23.349Z,4
2022-11-19T02:25:23.425Z,4
2022-11-19T02:26:23.386Z,5
2022-11-19T02:27:23.374Z,5
2022-11-19T02:28:23.377Z,4
2022-11-19T02:29:23.342Z,4
2022-11-19T02:30:23.469Z,5
2022-11-19T02:31:23.348Z,5
2022-11-19T02:32:23.342Z,4
2022-11-19T02:33:23.419Z,4
2022-11-19T02:34:23.426Z,4
2022-11-19T02:35:23.350Z,3
2022-11-19T02:36:23.444Z,4
2022-11-19T02:37:23.347Z,3
2022-11-19T02:38:23.344Z,3
2022-11-19T02:39:23.350Z,3
2022-11-19T02:40:23.354Z,3
2022-11-19T02:41:23.407Z,3
2022-11-19T02:42:23.373Z,3
2022-11-19T02:43:23.364Z,3
2022-11-19T02:44:23.391Z,3
2022-11-19T02:45:23.358Z,3
2022-11-19T02:46:23.396Z,3
2022-11-19T02:47:23.409Z,2
2022-11-19T02:48:23.339Z,3
2022-11-19T02:49:23.394Z,3
2022-11-19T02:50:23.428Z,4
2022-11-19T02:51:23.363Z,2
2022-11-19T02:52:23.386Z,2
2022-11-19T02:53:23.446Z,2
2022-11-19T02:54:23.358Z,2
2022-11-19T02:55:23.346Z,2
2022-11-19T02:56:23.385Z,3
2022-11-19T02:57:23.468Z,2
2022-11-19T02:58:23.377Z,2
2022-11-19T02:59:23.429Z,2
2022-11-19T03:00:23.339Z,2
2022-11-19T03:01:23.502Z,1
2022-11-19T03:02:23.348Z,1
2022-11-19T03:03:23.358Z,1
2022-11-19T03:04:23.334Z,1
2022-11-19T03:05:23.399Z,1
2022-11-19T03:06:23.368Z,1
2022-11-19T03:07:23.415Z,1
2022-11-19T03:08:23.345Z,1
2022-11-19T03:09:23.362Z,1
2022-11-19T03:10:23.443Z,1
2022-11-19T03:11:23.350Z,2
2022-11-19T03:12:23.420Z,1
2022-11-19T03:13:23.394Z,1
2022-11-19T03:14:23.361Z,2
2022-11-19T03:15:23.356Z,1
2022-11-19T03:16:23.337Z,1
2022-11-19T03:17:23.360Z,1
2022-11-19T03:18:23.362Z,1
2022-11-19T03:19:23.345Z,1
2022-11-19T03:20:23.413Z,2
2022-11-19T03:21:23.448Z,2
2022-11-19T03:22:23.356Z,1
2022-11-19T03:23:23.426Z,2
2022-11-19T03:24:23.351Z,1
2022-11-19T03:25:23.339Z,2
2022-11-19T03:26:23.387Z,1
2022-11-19T03:27:23.342Z,1
2022-11-19T03:28:23.402Z,1
2022-11-19T03:29:23.392Z,1
2022-11-19T03:30:23.377Z,1
2022-11-19T03:31:23.388Z,2
2022-11-19T03:32:23.388Z,2
2022-11-19T03:33:23.349Z,3
2022-11-19T03:34:23.368Z,4
2022-11-19T03:35:23.357Z,6
2022-11-19T03:36:23.427Z,5
2022-11-19T03:37:23.387Z,2
2022-11-19T03:38:23.440Z,2
2022-11-19T03:39:23.360Z,2
2022-11-19T03:40:23.356Z,1
2022-11-19T03:41:23.352Z,1
2022-11-19T03:42:23.341Z,2
2022-11-19T03:43:23.355Z,1
2022-11-19T03:44:23.391Z,2
2022-11-19T03:45:23.338Z,2
2022-11-19T03:46:23.380Z,2
2022-11-19T03:47:23.346Z,2
2022-11-19T03:48:23.394Z,1
2022-11-19T03:49:23.398Z,3
2022-11-19T03:50:23.346Z,1
2022-11-19T03:51:23.486Z,2
2022-11-19T03:52:23.380Z,1
2022-11-19T03:53:23.420Z,1
2022-11-19T03:54:23.347Z,2
2022-11-19T03:55:23.356Z,2
2022-11-19T03:56:23.340Z,2
2022-11-19T03:57:23.453Z,2
2022-11-19T03:58:23.347Z,2
2022-11-19T03:59:28.264Z,2
2022-11-19T04:00:23.389Z,2
2022-11-19T04:01:23.424Z,2
2022-11-19T04:02:23.340Z,3
2022-11-19T04:03:23.350Z,2
2022-11-19T04:04:23.396Z,2
2022-11-19T04:05:23.357Z,2
2022-11-19T04:06:23.388Z,2
2022-11-19T04:07:23.455Z,2
2022-11-19T04:08:23.402Z,3
2022-11-19T04:09:23.350Z,4
2022-11-19T04:10:23.437Z,3
2022-11-19T04:12:23.354Z,3
2022-11-19T04:13:23.395Z,3
2022-11-19T04:14:23.456Z,3
2022-11-19T04:15:23.390Z,3
2022-11-19T04:16:23.379Z,3
2022-11-19T04:17:23.348Z,3
2022-11-19T04:18:23.341Z,3
2022-11-19T04:19:23.388Z,4
2022-11-19T04:20:23.388Z,4
2022-11-19T04:21:23.363Z,3
2022-11-19T04:22:23.334Z,4
2022-11-19T04:23:23.419Z,4
2022-11-19T04:24:23.372Z,4
2022-11-19T04:25:23.335Z,4
2022-11-19T04:26:23.357Z,4
2022-11-19T04:27:23.430Z,4
2022-11-19T04:28:23.353Z,5
2022-11-19T04:29:23.336Z,5
2022-11-19T04:30:23.354Z,5
2022-11-19T04:31:23.461Z,4
2022-11-19T04:32:23.384Z,4
2022-11-19T04:33:23.376Z,5
2022-11-19T04:34:23.338Z,4
2022-11-19T04:35:23.393Z,5
2022-11-19T04:36:23.359Z,5
2022-11-19T04:37:23.354Z,5
2022-11-19T04:38:23.384Z,6
2022-11-19T04:39:23.548Z,5
2022-11-19T04:40:23.350Z,5
2022-11-19T04:41:23.420Z,6
2022-11-19T04:42:23.424Z,5
2022-11-19T04:43:23.339Z,5
2022-11-19T04:44:23.380Z,5
2022-11-19T04:45:23.443Z,5
2022-11-19T04:46:23.391Z,6
2022-11-19T04:47:23.385Z,6
2022-11-19T04:48:23.352Z,5
2022-11-19T04:49:23.350Z,5
2022-11-19T04:50:23.351Z,6
2022-11-19T04:51:23.368Z,6
2022-11-19T04:52:23.406Z,5
2022-11-19T04:53:23.362Z,8
2022-11-19T04:54:23.382Z,5
2022-11-19T04:55:23.440Z,6
2022-11-19T04:56:23.342Z,5
2022-11-19T04:57:23.339Z,5
2022-11-19T04:58:23.330Z,6
2022-11-19T04:59:23.340Z,7
2022-11-19T05:00:23.398Z,7
2022-11-19T05:01:23.416Z,6
2022-11-19T05:02:23.386Z,6
2022-11-19T05:03:23.444Z,7
2022-11-19T05:04:23.327Z,7
2022-11-19T05:05:23.344Z,7
2022-11-19T05:06:23.357Z,7
2022-11-19T05:07:23.430Z,7
2022-11-19T05:08:23.346Z,7
2022-11-19T05:09:23.344Z,9
2022-11-19T05:10:23.418Z,7
2022-11-19T05:11:23.339Z,9
2022-11-19T05:12:23.334Z,7
2022-11-19T05:13:23.351Z,7
2022-11-19T05:14:28.805Z,9
2022-11-19T05:15:23.332Z,8
2022-11-19T05:16:23.455Z,8
2022-11-19T05:17:23.399Z,9
2022-11-19T05:18:23.396Z,8
2022-11-19T05:19:23.357Z,8
2022-11-19T05:20:23.344Z,8
2022-11-19T05:21:23.351Z,10
2022-11-19T05:22:23.327Z,9
2022-11-19T05:23:23.334Z,9
2022-11-19T05:24:23.335Z,8
2022-11-19T05:25:23.434Z,9
2022-11-19T05:26:23.398Z,8
2022-11-19T05:27:23.344Z,10
2022-11-19T05:28:37.540Z,10
2022-11-19T05:29:23.329Z,9
2022-11-19T05:30:23.430Z,9
2022-11-19T05:31:23.442Z,9
2022-11-19T05:32:23.327Z,9
2022-11-19T05:33:23.429Z,12
2022-11-19T05:34:23.399Z,10
2022-11-19T05:35:23.359Z,10
2022-11-19T05:36:23.415Z,11
2022-11-19T05:37:23.349Z,11
2022-11-19T05:38:23.337Z,11
2022-11-19T05:39:23.770Z,11
2022-11-19T05:40:23.363Z,10
2022-11-19T05:41:23.394Z,10
2022-11-19T05:42:23.367Z,11
2022-11-19T05:43:23.339Z,10
2022-11-19T05:44:23.349Z,11
2022-11-19T05:45:23.326Z,11
2022-11-19T05:46:23.338Z,10
2022-11-19T05:47:23.390Z,12
2022-11-19T05:48:23.420Z,12
2022-11-19T05:49:23.370Z,10
2022-11-19T05:50:23.374Z,11
2022-11-19T05:51:23.367Z,11
2022-11-19T05:52:23.340Z,12
2022-11-19T05:53:23.339Z,11
2022-11-19T05:54:23.419Z,13
2022-11-19T05:55:23.332Z,12
2022-11-19T05:56:23.332Z,10
2022-11-19T05:57:23.373Z,12
2022-11-19T05:58:23.420Z,11
2022-11-19T05:59:23.332Z,12
2022-11-19T06:00:23.328Z,12
2022-11-19T06:01:23.336Z,11
2022-11-19T06:02:23.392Z,12
2022-11-19T06:03:23.341Z,12
2022-11-19T06:04:23.335Z,12
2022-11-19T06:05:23.415Z,12
2022-11-19T06:06:23.351Z,12
2022-11-19T06:07:23.366Z,13
2022-11-19T06:08:23.339Z,13
2022-11-19T06:09:23.331Z,14
2022-11-19T06:10:23.334Z,13
2022-11-19T06:11:23.340Z,12
2022-11-19T06:12:23.413Z,16
2022-11-19T06:13:23.369Z,13
2022-11-19T06:14:23.357Z,13
2022-11-19T06:15:23.353Z,14
2022-11-19T06:16:23.359Z,13
2022-11-19T06:17:23.327Z,13
2022-11-19T06:18:23.323Z,13
2022-11-19T06:19:23.322Z,14
2022-11-19T06:20:23.380Z,16
2022-11-19T06:21:23.522Z,13
2022-11-19T06:22:23.340Z,13
2022-11-19T06:23:23.374Z,13
2022-11-19T06:24:23.376Z,14
2022-11-19T06:25:23.493Z,13
2022-11-19T06:26:23.390Z,12
2022-11-19T06:27:23.342Z,13
2022-11-19T06:28:23.386Z,15
2022-11-19T06:29:23.401Z,13
2022-11-19T06:30:23.336Z,13
2022-11-19T06:31:23.530Z,14
2022-11-19T06:32:23.353Z,14
2022-11-19T06:33:23.330Z,15
2022-11-19T06:34:23.438Z,14
2022-11-19T06:35:23.435Z,15
2022-11-19T06:36:25.206Z,16
2022-11-19T06:37:23.461Z,14
2022-11-19T06:38:23.359Z,16
2022-11-19T06:39:23.562Z,15
2022-11-19T06:40:23.328Z,15
2022-11-19T06:41:23.333Z,14
2022-11-19T06:42:23.301Z,15
2022-11-19T06:43:23.350Z,16
2022-11-19T06:44:23.392Z,15
2022-11-19T06:45:23.337Z,16
2022-11-19T06:46:23.406Z,17
2022-11-19T06:47:23.357Z,17
2022-11-19T06:48:23.388Z,16
2022-11-19T06:49:23.818Z,16
2022-11-19T06:50:23.362Z,17
2022-11-19T06:51:23.372Z,16
2022-11-19T06:52:23.447Z,19
2022-11-19T06:53:23.338Z,17
2022-11-19T06:54:23.328Z,16
2022-11-19T06:55:23.369Z,17
2022-11-19T06:56:23.345Z,16
2022-11-19T06:57:23.379Z,18
2022-11-19T06:58:23.749Z,17
2022-11-19T06:59:23.414Z,18
2022-11-19T07:00:23.376Z,17
2022-11-19T07:01:23.365Z,16
2022-11-19T07:02:23.338Z,17
2022-11-19T07:03:23.416Z,17
2022-11-19T07:04:23.424Z,17
2022-11-19T07:05:23.338Z,18
2022-11-19T07:06:23.400Z,18
2022-11-19T07:07:23.463Z,18
2022-11-19T07:08:23.387Z,16
2022-11-19T07:09:23.319Z,17
2022-11-19T07:10:23.379Z,17
2022-11-19T07:11:23.338Z,19
2022-11-19T07:12:23.465Z,18
2022-11-19T07:13:23.462Z,16
2022-11-19T07:14:23.322Z,18
2022-11-19T07:15:23.381Z,17
2022-11-19T07:16:23.411Z,20
2022-11-19T07:17:23.335Z,19
2022-11-19T07:18:23.327Z,17
2022-11-19T07:19:23.339Z,18
2022-11-19T07:20:23.333Z,19
2022-11-19T07:21:23.416Z,19
2022-11-19T07:22:23.338Z,17
2022-11-19T07:23:23.385Z,18
2022-11-19T07:24:23.475Z,18
2022-11-19T07:25:23.349Z,18
2022-11-19T07:26:23.334Z,19
2022-11-19T07:27:23.355Z,18
2022-11-19T07:28:23.340Z,18
2022-11-19T07:29:23.671Z,17
2022-11-19T07:30:23.348Z,18
2022-11-19T07:31:23.403Z,20
2022-11-19T07:32:23.358Z,19
2022-11-19T07:33:23.338Z,20
2022-11-19T07:34:23.338Z,19
2022-11-19T07:35:23.330Z,22
2022-11-19T07:36:26.626Z,18
2022-11-19T07:37:23.330Z,20
2022-11-19T07:38:23.460Z,20
2022-11-19T07:39:23.634Z,20
2022-11-19T07:40:23.351Z,19
2022-11-19T07:41:23.339Z,19
2022-11-19T07:42:23.332Z,18
2022-11-19T07:43:23.459Z,22
2022-11-19T07:44:23.331Z,19
2022-11-19T07:45:23.333Z,21
2022-11-19T07:46:23.402Z,20
2022-11-19T07:47:23.360Z,19
2022-11-19T07:48:23.347Z,17
2022-11-19T07:49:23.619Z,20
2022-11-19T07:50:23.350Z,19
2022-11-19T07:51:23.337Z,19
2022-11-19T07:52:23.319Z,18
2022-11-19T07:53:23.333Z,20
2022-11-19T07:54:23.413Z,18
2022-11-19T07:55:23.360Z,20
2022-11-19T07:56:23.594Z,19
2022-11-19T07:57:29.860Z,17
2022-11-19T07:58:23.338Z,18
2022-11-19T07:59:23.411Z,17
2022-11-19T08:00:23.335Z,16
2022-11-19T08:01:23.490Z,19
2022-11-19T08:02:23.373Z,19
2022-11-19T08:03:23.357Z,17
2022-11-19T08:04:23.351Z,19
2022-11-19T08:05:23.316Z,17
2022-11-19T08:06:23.354Z,18
2022-11-19T08:07:23.477Z,17
2022-11-19T08:08:23.332Z,16
2022-11-19T08:09:23.353Z,17
2022-11-19T08:10:27.702Z,17
2022-11-19T08:11:23.367Z,18
2022-11-19T08:12:23.332Z,16
2022-11-19T08:13:23.326Z,18
2022-11-19T08:14:23.344Z,18
2022-11-19T08:15:23.364Z,18
2022-11-19T08:16:23.408Z,16
2022-11-19T08:17:23.328Z,16
2022-11-19T08:18:27.244Z,18
2022-11-19T08:19:23.719Z,17
2022-11-19T08:20:23.414Z,17
2022-11-19T08:21:23.326Z,17
2022-11-19T08:22:23.404Z,17
2022-11-19T08:23:23.323Z,17
2022-11-19T08:24:23.755Z,17
2022-11-19T08:25:23.333Z,16
2022-11-19T08:26:23.374Z,18
2022-11-19T08:27:23.333Z,16
2022-11-19T08:28:23.326Z,17
2022-11-19T08:29:23.338Z,18
2022-11-19T08:30:23.370Z,19
2022-11-19T08:31:23.349Z,17
2022-11-19T08:32:23.321Z,20
2022-11-19T08:33:23.386Z,18
2022-11-19T08:34:23.556Z,18
2022-11-19T08:35:23.330Z,18
2022-11-19T08:36:23.322Z,17
2022-11-19T08:37:23.340Z,16
2022-11-19T08:38:23.339Z,17
2022-11-19T08:39:23.477Z,16
2022-11-19T08:40:23.741Z,18
2022-11-19T08:41:23.650Z,17
2022-11-19T08:42:23.658Z,15
2022-11-19T08:43:23.319Z,16
2022-11-19T08:44:23.489Z,16
2022-11-19T08:45:23.315Z,16
2022-11-19T08:46:23.328Z,16
2022-11-19T08:47:23.345Z,16
2022-11-19T08:48:23.336Z,16
2022-11-19T08:49:23.368Z,17
2022-11-19T08:50:23.423Z,17
2022-11-19T08:51:23.341Z,17
2022-11-19T08:52:23.414Z,16
2022-11-19T08:53:23.325Z,16
2022-11-19T08:54:23.353Z,17
2022-11-19T08:55:23.366Z,16
2022-11-19T08:56:23.343Z,15
2022-11-19T08:57:23.377Z,17
2022-11-19T08:58:23.363Z,15
2022-11-19T08:59:23.329Z,16
2022-11-19T09:00:23.330Z,16
2022-11-19T09:01:23.370Z,17
2022-11-19T09:02:23.318Z,16
2022-11-19T09:03:23.388Z,16
2022-11-19T09:04:23.389Z,20
2022-11-19T09:05:23.363Z,39
2022-11-19T09:06:23.408Z,41
2022-11-19T09:07:23.376Z,25
2022-11-19T09:08:23.325Z,38
2022-11-19T09:09:23.323Z,35
2022-11-19T09:10:23.329Z,40
2022-11-19T09:11:23.356Z,88
2022-11-19T09:12:23.344Z,37
2022-11-19T09:13:23.367Z,38
2022-11-19T09:14:23.329Z,32
2022-11-19T09:15:23.409Z,30
2022-11-19T09:16:23.322Z,32
2022-11-19T09:17:23.313Z,48
2022-11-19T09:18:23.334Z,76
2022-11-19T09:19:23.342Z,184
2022-11-19T09:20:23.340Z,43
2022-11-19T09:21:23.363Z,26
2022-11-19T09:22:23.315Z,17
2022-11-19T09:23:23.317Z,31
2022-11-19T09:24:23.413Z,23
2022-11-19T09:25:23.410Z,32
2022-11-19T09:26:23.339Z,31
2022-11-19T09:27:23.323Z,25
2022-11-19T09:28:23.379Z,27
2022-11-19T09:29:23.370Z,22
2022-11-19T09:30:23.341Z,33
2022-11-19T09:31:23.333Z,29
2022-11-19T09:32:25.509Z,23
2022-11-19T09:33:23.360Z,24
2022-11-19T09:34:23.324Z,19
2022-11-19T09:35:23.418Z,25
2022-11-19T09:36:23.366Z,24
2022-11-19T09:37:23.389Z,21
2022-11-19T09:38:23.327Z,19
2022-11-19T09:39:23.372Z,20
2022-11-19T09:40:23.339Z,18
2022-11-19T09:41:23.334Z,19
2022-11-19T09:42:23.340Z,16
2022-11-19T09:43:23.319Z,20
2022-11-19T09:44:23.371Z,18
2022-11-19T09:45:23.534Z,17
2022-11-19T09:46:23.329Z,16
2022-11-19T09:47:23.340Z,17
2022-11-19T09:48:23.316Z,15
2022-11-19T09:49:23.328Z,16
2022-11-19T09:50:23.383Z,16
2022-11-19T09:51:23.333Z,21
2022-11-19T09:52:23.366Z,17
2022-11-19T09:53:23.357Z,18
2022-11-19T09:54:23.356Z,16
2022-11-19T09:55:23.391Z,15
2022-11-19T09:56:23.317Z,16
2022-11-19T09:57:23.327Z,16
2022-11-19T09:58:23.321Z,17
2022-11-19T09:59:23.321Z,42
2022-11-19T10:00:23.364Z,30
2022-11-19T10:01:23.335Z,23
2022-11-19T10:02:23.322Z,20
2022-11-19T10:03:23.674Z,16
2022-11-19T10:04:23.364Z,17
2022-11-19T10:05:23.324Z,16
2022-11-19T10:06:23.322Z,18
2022-11-19T10:07:23.430Z,16
2022-11-19T10:08:23.369Z,14
2022-11-19T10:09:23.311Z,16
2022-11-19T10:10:23.321Z,15
2022-11-19T10:11:23.338Z,17
2022-11-19T10:12:23.360Z,15
2022-11-19T10:13:23.355Z,16
2022-11-19T10:14:23.353Z,18
2022-11-19T10:15:23.349Z,18
2022-11-19T10:16:23.359Z,17
2022-11-19T10:17:23.334Z,16
2022-11-19T10:18:23.365Z,17
2022-11-19T10:19:23.373Z,15
2022-11-19T10:20:23.321Z,15
2022-11-19T10:21:23.346Z,17
2022-11-19T10:22:23.401Z,16
2022-11-19T10:23:23.359Z,15
2022-11-19T10:24:23.500Z,16
2022-11-19T10:25:23.314Z,16
2022-11-19T10:26:23.387Z,16
2022-11-19T10:27:23.326Z,15
2022-11-19T10:28:23.331Z,17
2022-11-19T10:29:23.477Z,15
2022-11-19T10:30:23.405Z,17
2022-11-19T10:31:23.373Z,16
2022-11-19T10:32:23.373Z,15
2022-11-19T10:33:23.314Z,17
2022-11-19T10:34:23.381Z,18
2022-11-19T10:35:23.436Z,18
2022-11-19T10:36:23.329Z,13
2022-11-19T10:37:23.390Z,17
2022-11-19T10:38:23.347Z,17
2022-11-19T10:39:23.372Z,15
2022-11-19T10:40:23.419Z,17
2022-11-19T10:41:23.326Z,16
2022-11-19T10:42:23.324Z,16
2022-11-19T10:43:23.795Z,15
2022-11-19T10:44:23.347Z,15
2022-11-19T10:45:23.615Z,15
2022-11-19T10:46:23.316Z,17
2022-11-19T10:47:23.407Z,16
2022-11-19T10:48:23.323Z,15
2022-11-19T10:49:23.321Z,16
2022-11-19T10:50:23.338Z,14
2022-11-19T10:51:23.392Z,16
2022-11-19T10:52:23.308Z,16
2022-11-19T10:53:23.329Z,14
2022-11-19T10:54:23.362Z,14
2022-11-19T10:55:23.368Z,16
2022-11-19T10:56:23.330Z,14
2022-11-19T10:57:23.313Z,16
2022-11-19T10:58:23.315Z,15
2022-11-19T10:59:23.485Z,18
2022-11-19T11:00:23.322Z,16
2022-11-19T11:01:23.358Z,17
2022-11-19T11:02:27.711Z,16
2022-11-19T11:03:23.365Z,17
2022-11-19T11:04:23.311Z,16
2022-11-19T11:05:23.324Z,14
2022-11-19T11:06:23.335Z,17
2022-11-19T11:07:23.388Z,15
2022-11-19T11:08:23.316Z,15
2022-11-19T11:09:23.330Z,16
2022-11-19T11:10:23.367Z,21
2022-11-19T11:11:23.352Z,15
2022-11-19T11:12:23.313Z,15
2022-11-19T11:13:23.329Z,15
2022-11-19T11:14:23.335Z,15
2022-11-19T11:15:23.415Z,15
2022-11-19T11:16:23.394Z,15
2022-11-19T11:17:23.411Z,14
2022-11-19T11:18:23.461Z,14
2022-11-19T11:19:23.554Z,14
2022-11-19T11:20:23.369Z,15
2022-11-19T11:21:23.309Z,15
2022-11-19T11:22:23.344Z,16
2022-11-19T11:23:23.342Z,18
2022-11-19T11:24:23.346Z,15
2022-11-19T11:25:23.405Z,16
2022-11-19T11:26:23.415Z,17
2022-11-19T11:27:23.375Z,17
2022-11-19T11:28:23.380Z,14
2022-11-19T11:29:23.384Z,15
2022-11-19T11:30:23.427Z,14
2022-11-19T11:31:23.376Z,16
2022-11-19T11:32:23.338Z,16
2022-11-19T11:33:23.364Z,15
2022-11-19T11:34:23.425Z,13
2022-11-19T11:35:23.376Z,13
2022-11-19T11:36:23.334Z,15
2022-11-19T11:37:23.323Z,14
2022-11-19T11:38:23.374Z,13
2022-11-19T11:39:23.341Z,14
2022-11-19T11:40:23.324Z,14
2022-11-19T11:42:04.381Z,14
2022-11-19T11:42:23.369Z,13
2022-11-19T11:43:23.375Z,14
2022-11-19T11:44:23.392Z,13
2022-11-19T11:45:23.338Z,13
2022-11-19T11:46:23.375Z,13
2022-11-19T11:47:23.436Z,14
2022-11-19T11:48:23.366Z,14
2022-11-19T11:49:23.793Z,14
2022-11-19T11:50:23.428Z,17
2022-11-19T11:51:23.376Z,14
2022-11-19T11:52:23.498Z,38
2022-11-19T11:53:23.384Z,23
2022-11-19T11:54:23.301Z,31
2022-11-19T11:55:23.376Z,23
2022-11-19T11:56:23.415Z,25
2022-11-19T11:57:23.359Z,20
2022-11-19T11:58:23.348Z,19
2022-11-19T11:59:23.311Z,17
2022-11-19T12:00:23.331Z,18
2022-11-19T12:01:23.308Z,15
2022-11-19T12:02:23.353Z,16
2022-11-19T12:03:23.317Z,15
2022-11-19T12:04:23.314Z,14
2022-11-19T12:05:23.351Z,15
2022-11-19T12:06:23.310Z,16
2022-11-19T12:07:23.373Z,16
2022-11-19T12:08:26.922Z,15
2022-11-19T12:09:23.326Z,13
2022-11-19T12:10:23.322Z,16
2022-11-19T12:11:23.317Z,14
2022-11-19T12:12:23.356Z,14
2022-11-19T12:13:23.360Z,14
2022-11-19T12:14:23.307Z,15
2022-11-19T12:15:23.329Z,14
2022-11-19T12:16:23.338Z,14
2022-11-19T12:17:23.334Z,13
2022-11-19T12:18:23.327Z,15
2022-11-19T12:19:23.320Z,15
2022-11-19T12:20:23.407Z,15
2022-11-19T12:21:23.348Z,14
2022-11-19T12:22:23.320Z,14
2022-11-19T12:23:23.306Z,15
2022-11-19T12:24:23.306Z,15
2022-11-19T12:25:23.298Z,15
2022-11-19T12:26:23.316Z,14
2022-11-19T12:27:23.322Z,14
2022-11-19T12:28:23.365Z,14
2022-11-19T12:29:23.424Z,14
2022-11-19T12:30:23.332Z,16
2022-11-19T12:31:27.305Z,15
2022-11-19T12:32:23.302Z,14
2022-11-19T12:33:23.315Z,14
2022-11-19T12:34:23.321Z,14
2022-11-19T12:35:23.328Z,14
2022-11-19T12:36:23.356Z,15
2022-11-19T12:37:23.357Z,14
2022-11-19T12:38:23.310Z,15
2022-11-19T12:39:23.314Z,16
2022-11-19T12:40:23.302Z,16
2022-11-19T12:41:23.331Z,14
2022-11-19T12:42:23.304Z,14
2022-11-19T12:43:23.325Z,14
2022-11-19T12:44:23.358Z,14
2022-11-19T12:45:23.303Z,16
2022-11-19T12:46:23.308Z,15
2022-11-19T12:47:23.331Z,15
2022-11-19T12:48:23.330Z,14
2022-11-19T12:49:23.318Z,15
2022-11-19T12:50:23.307Z,15
2022-11-19T12:51:23.342Z,15
2022-11-19T12:52:23.343Z,15
2022-11-19T12:53:23.310Z,14
2022-11-19T12:54:31.759Z,13
2022-11-19T12:55:23.312Z,14
2022-11-19T12:56:23.321Z,13
2022-11-19T12:57:23.303Z,15
2022-11-19T12:58:23.329Z,15
2022-11-19T12:59:23.485Z,14
2022-11-19T13:00:23.358Z,14
2022-11-19T13:01:23.474Z,16
2022-11-19T13:02:23.399Z,15
2022-11-19T13:03:23.312Z,17
2022-11-19T13:04:23.356Z,15
2022-11-19T13:05:23.369Z,13
2022-11-19T13:06:23.301Z,15
2022-11-19T13:07:23.411Z,15
2022-11-19T13:08:23.349Z,16
2022-11-19T13:09:23.303Z,15
2022-11-19T13:10:23.316Z,14
2022-11-19T13:11:23.302Z,17
2022-11-19T13:12:23.290Z,14
2022-11-19T13:13:23.311Z,15
2022-11-19T13:14:23.315Z,16
2022-11-19T13:15:23.363Z,14
2022-11-19T13:16:23.394Z,13
2022-11-19T13:17:23.353Z,14
2022-11-19T13:18:23.353Z,18
2022-11-19T13:19:23.526Z,13
2022-11-19T13:20:23.321Z,15
2022-11-19T13:21:23.323Z,14
2022-11-19T13:22:23.565Z,14
2022-11-19T13:23:23.558Z,14
2022-11-19T13:24:23.542Z,16
2022-11-19T13:25:23.454Z,13
2022-11-19T13:26:23.674Z,14
2022-11-19T13:27:23.676Z,13
2022-11-19T13:28:23.309Z,13
2022-11-19T13:29:23.400Z,12
2022-11-19T13:30:23.435Z,14
2022-11-19T13:31:23.346Z,15
2022-11-19T13:32:23.302Z,14
2022-11-19T13:33:23.346Z,15
2022-11-19T13:34:23.302Z,14
2022-11-19T13:35:23.314Z,14
2022-11-19T13:36:23.310Z,16
2022-11-19T13:37:23.302Z,16
2022-11-19T13:38:23.354Z,14
2022-11-19T13:39:23.347Z,14
2022-11-19T13:40:23.319Z,14
2022-11-19T13:41:23.314Z,15
2022-11-19T13:42:23.296Z,13
2022-11-19T13:43:32.560Z,15
2022-11-19T13:44:23.377Z,15
2022-11-19T13:45:23.310Z,18
2022-11-19T13:46:23.357Z,20
2022-11-19T13:47:23.353Z,24
2022-11-19T13:48:23.313Z,25
2022-11-19T13:49:23.488Z,19
2022-11-19T13:50:23.336Z,20
2022-11-19T13:51:23.307Z,36
2022-11-19T13:52:23.321Z,29
2022-11-19T13:53:23.314Z,24
2022-11-19T13:54:23.378Z,20
2022-11-19T13:55:23.319Z,29
2022-11-19T13:56:23.302Z,23
2022-11-19T13:57:23.323Z,21
2022-11-19T13:58:23.320Z,22
2022-11-19T13:59:23.303Z,22
2022-11-19T14:00:23.310Z,19
2022-11-19T14:01:23.400Z,20
2022-11-19T14:02:23.334Z,18
2022-11-19T14:03:23.305Z,17
2022-11-19T14:04:23.293Z,20
2022-11-19T14:05:23.315Z,17
2022-11-19T14:06:23.299Z,15
2022-11-19T14:07:28.109Z,16
2022-11-19T14:08:23.303Z,17
2022-11-19T14:09:23.667Z,14
2022-11-19T14:10:23.332Z,16
2022-11-19T14:11:23.293Z,15
2022-11-19T14:12:23.297Z,14
2022-11-19T14:13:23.310Z,18
2022-11-19T14:14:23.300Z,16
2022-11-19T14:15:23.321Z,14
2022-11-19T14:16:23.300Z,16
2022-11-19T14:17:23.349Z,17
2022-11-19T14:18:23.313Z,14
2022-11-19T14:19:23.315Z,16
2022-11-19T14:20:23.305Z,14
2022-11-19T14:21:23.372Z,15
2022-11-19T14:22:23.319Z,16
2022-11-19T14:23:23.310Z,14
2022-11-19T14:24:23.317Z,14
2022-11-19T14:25:23.351Z,16
2022-11-19T14:26:23.307Z,14
2022-11-19T14:27:23.320Z,14